Latest Coastal Weather Observations for Geelong Racecourse

IDV60701

Issued at 6:31 pm EST Friday 29 May 2015 (issued every 10 minutes, with the page automatically refreshed every 10 minutes)

About coastal observations | Map of coastal stations | Coastal observations for VIC | Marine services | Other Formats
Station Details ID: 087184 Name: GEELONG RACECOURSE Lat: -38.17 Lon: 144.38 Height: 12.9 m
Data from the previous 72 hours. | See also: Recent months at Geelong Racecourse
Date/Time
EST
Temp

°C
Wind Pressure Rain
since 9am
mm
Weather Cloud Vis
km
Sea
Height
m
Swell
Dir
 
Speed
knots
Gust
knots
hPa Trend Height
m
Period
s
Dir
29/06:30pm 12.2 NNW 3 5 1021.0 - 0.0 - - - - - - -
29/06:00pm 12.3 WNW 3 6 1020.8 - 0.0 - - - - - - -
29/05:30pm 13.3 NW 6 10 1020.5 - 0.0 - - - - - - -
29/05:00pm 13.9 NW 7 10 1020.5 - 0.0 - - - - - - -
29/04:30pm 14.1 NW 8 12 1020.3 - 0.0 - - - - - - -
29/04:00pm 14.5 NW 10 15 1020.2 - 0.0 - - - - - - -
29/03:30pm 14.4 WNW 6 9 1020.3 - 0.0 - - - - - - -
29/03:00pm 14.4 NW 9 13 1020.3 - 0.0 - - - - - - -
29/02:30pm 14.3 WNW 10 14 1020.2 - 0.0 - - - - - - -
29/02:00pm 15.2 W 7 15 1020.1 - 0.0 - - - - - - -
29/01:30pm 14.0 WNW 9 14 1020.3 - 0.0 - - - - - - -
29/01:00pm 15.1 WNW 11 16 1020.3 - 0.0 - - - - - - -
29/12:30pm 14.1 WNW 11 16 1020.5 - 0.0 - - - - - - -
29/12:00pm 14.2 WNW 10 16 1020.9 - 0.0 - - - - - - -
29/11:30am 13.3 NW 10 18 1021.3 - 0.0 - - - - - - -
29/11:00am 13.2 WNW 10 16 1021.6 - 0.0 - - - - - - -
29/10:30am 13.4 WNW 8 13 1021.6 - 0.0 - - - - - - -
29/10:00am 12.3 WNW 5 8 1021.5 - 0.0 - - - - - - -
29/09:30am 11.3 NW 6 9 1021.3 - 0.0 - - - - - - -
29/09:00am 10.2 WNW 6 8 1021.3 - 0.2 - - - - - - -
29/08:30am 9.6 WNW 3 7 1021.1 - 0.2 - - - - - - -
29/08:00am 8.8 WNW 4 6 1020.8 - 0.2 - - - - - - -
29/07:30am 7.6 E 2 3 1020.5 - 0.2 - - - - - - -
29/07:00am 8.4 NW 4 6 1020.1 - 0.2 - - - - - - -
29/06:30am 8.7 NW 6 10 1019.6 - 0.2 - - - - - - -
29/06:00am 8.5 NW 5 7 1019.3 - 0.2 - - - - - - -
29/05:30am 8.6 NW 5 8 1019.0 - 0.2 - - - - - - -
29/05:00am 8.7 NW 4 7 1018.8 - 0.2 - - - - - - -
29/04:30am 9.1 NW 3 5 1018.7 - 0.2 - - - - - - -
29/04:00am 9.4 WNW 4 7 1018.3 - 0.2 - - - - - - -
29/03:30am 10.0 NW 7 10 1018.1 - 0.2 - - - - - - -
29/03:00am 10.1 NW 8 11 1018.0 - 0.2 - - - - - - -
29/02:30am 10.5 WNW 8 12 1017.9 - 0.2 - - - - - - -
29/02:00am 10.3 W 5 8 1017.9 - 0.2 - - - - - - -
29/01:30am 10.8 NW 6 13 1017.6 - 0.2 - - - - - - -
29/01:00am 11.0 WNW 4 8 1017.3 - 0.2 - - - - - - -
29/12:30am 10.7 W 3 6 1017.3 - 0.2 - - - - - - -
29/12:00am 11.2 NW 4 7 1016.9 - 0.2 - - - - - - -
 
Date/Time
EST
Temp

°C
Wind Pressure Rain
since 9am
mm
Weather Cloud Vis
km
Sea
Height
m
Swell
Dir
 
Speed
knots
Gust
knots
hPa Trend Height
m
Period
s
Dir
28/11:30pm 11.8 NW 5 9 1016.6 - 0.2 - - - - - - -
28/11:00pm 11.8 WNW 6 9 1016.6 - 0.2 - - - - - - -
28/10:30pm 12.3 WNW 7 11 1016.4 - 0.2 - - - - - - -
28/10:00pm 12.4 NW 5 7 1016.5 - 0.2 - - - - - - -
28/09:30pm 12.4 NW 5 7 1016.3 - 0.2 - - - - - - -
28/09:00pm 12.2 NW 3 7 1016.1 - 0.2 Rain - - - - - -
28/08:30pm 12.3 NW 5 8 1015.9 - 0.0 - - - - - - -
28/08:00pm 12.8 WNW 6 12 1015.7 - 0.0 - - - - - - -
28/07:30pm 13.4 W 10 17 1015.1 - 0.0 - - - - - - -
28/07:00pm 13.9 W 10 15 1014.8 - 0.0 - - - - - - -
28/06:30pm 14.5 WSW 9 13 1014.1 - 0.0 - - - - - - -
28/06:00pm 17.0 WNW 7 11 1013.0 - 0.0 - - - - - - -
28/05:30pm 17.6 WNW 9 18 1012.4 - 0.0 - - - - - - -
28/05:00pm 18.3 WNW 8 12 1012.2 - 0.0 - - - - - - -
28/04:30pm 19.6 NW 11 19 1011.9 - 0.0 - - - - - - -
28/04:00pm 19.7 NW 15 25 1011.8 - 0.0 - - - - - - -
28/03:30pm 20.1 NNW 13 21 1011.8 - 0.0 - - - - - - -
28/03:00pm 20.3 NNW 16 26 1012.0 - 0.0 - - - - - - -
28/02:57pm 20.3 NNW 16 26 1012.0 - 0.0 - - - - - - -
28/02:30pm 20.1 NNW 17 25 1012.1 - 0.0 - - - - - - -
28/02:08pm 20.1 NNW 18 27 1012.2 - 0.0 - - - - - - -
28/02:00pm 20.4 NNW 17 26 1012.3 - 0.0 - - - - - - -
28/01:33pm 20.8 NW 15 26 1012.6 - 0.0 - - - - - - -
28/01:30pm 20.4 NW 15 23 1012.7 - 0.0 - - - - - - -
28/01:00pm 20.1 NNW 15 25 1012.8 - 0.0 - - - - - - -
28/12:30pm 20.2 NW 16 26 1013.6 - 0.0 - - - - - - -
28/12:28pm 20.1 NW 16 26 1013.5 - 0.0 - - - - - - -
28/12:00pm 19.0 WNW 12 17 1014.3 - 0.0 - - - - - - -
28/11:30am 20.0 NNW 14 23 1014.4 - 0.0 - - - - - - -
28/11:00am 18.7 WNW 8 25 1015.1 - 0.0 - - - - - - -
28/10:30am 18.4 NW 10 14 1015.9 - 0.0 - - - - - - -
28/10:00am 17.4 NW 10 17 1015.9 - 0.0 - - - - - - -
28/09:30am 16.8 N 6 11 1015.9 - 0.0 - - - - - - -
28/09:00am 15.8 N 9 15 1015.7 - 0.0 - - - - - - -
28/08:30am 14.9 N 10 16 1015.7 - 0.0 - - - - - - -
28/08:00am 15.2 N 10 16 1015.8 - 0.0 - - - - - - -
28/07:30am 15.3 NNW 9 14 1015.8 - 0.0 - - - - - - -
28/07:00am 15.7 N 9 13 1015.9 - 0.0 - - - - - - -
28/06:30am 16.0 NNW 9 15 1015.6 - 0.0 - - - - - - -
28/06:00am 15.8 N 9 14 1015.4 - 0.0 - - - - - - -
28/05:30am 15.7 N 9 13 1015.4 - 0.0 - - - - - - -
28/05:00am 15.6 N 9 13 1015.7 - 0.0 - - - - - - -
28/04:30am 14.2 N 7 9 1015.7 - 0.0 - - - - - - -
28/04:00am 13.3 N 6 8 1015.9 - 0.0 - - - - - - -
28/03:30am 13.2 N 4 5 1016.0 - 0.0 - - - - - - -
28/03:00am 12.9 N 5 7 1016.4 - 0.0 - - - - - - -
28/02:30am 12.8 N 4 5 1016.6 - 0.0 - - - - - - -
28/02:00am 12.8 N 3 5 1016.7 - 0.0 - - - - - - -
28/01:30am 13.7 N 6 8 1017.0 - 0.0 - - - - - - -
28/01:00am 14.2 N 6 8 1017.0 - 0.0 - - - - - - -
28/12:30am 14.3 N 5 8 1017.3 - 0.0 - - - - - - -
28/12:00am 14.7 N 8 12 1017.3 - 0.0 - - - - - - -
 
Date/Time
EST
Temp

°C
Wind Pressure Rain
since 9am
mm
Weather Cloud Vis
km
Sea
Height
m
Swell
Dir
 
Speed
knots
Gust
knots
hPa Trend Height
m
Period
s
Dir
27/11:30pm 14.7 N 8 12 1017.4 - 0.0 - - - - - - -
27/11:00pm 14.0 N 7 11 1017.5 - 0.0 - - - - - - -
27/10:30pm 13.5 N 4 6 1017.7 - 0.0 - - - - - - -
27/10:00pm 13.9 N 6 8 1017.8 - 0.0 - - - - - - -
27/09:30pm 14.5 N 9 12 1017.7 - 0.0 - - - - - - -
27/09:00pm 13.9 NNE 6 11 1017.8 - 0.0 - - - - - - -
27/08:30pm 13.9 NNE 7 9 1017.7 - 0.0 - - - - - - -
27/08:00pm 13.3 NNE 7 10 1017.7 - 0.0 - - - - - - -
27/07:30pm 13.8 NNE 8 11 1017.8 - 0.0 - - - - - - -
27/07:00pm 14.9 N 7 10 1017.7 - 0.0 - - - - - - -
27/06:30pm 16.1 N 7 11 1017.5 - 0.0 - - - - - - -
27/06:00pm 16.2 NNW 8 10 1017.4 - 0.0 - - - - - - -
27/05:30pm 16.9 NNW 8 11 1017.2 - 0.0 - - - - - - -
27/05:00pm 17.5 NNW 8 12 1017.1 - 0.0 - - - - - - -
27/04:30pm 18.3 NW 8 13 1016.8 - 0.0 - - - - - - -
27/04:00pm 18.8 NW 11 16 1016.8 - 0.0 - - - - - - -
27/03:30pm 19.2 NW 12 16 1016.6 - 0.0 - - - - - - -
27/03:00pm 19.3 WNW 12 17 1016.5 - 0.0 - - - - - - -
27/02:30pm 19.5 NW 10 16 1016.5 - 0.0 - - - - - - -
27/02:00pm 19.8 NW 10 16 1016.7 - 0.0 - - - - - - -
27/01:30pm 19.9 NNW 9 15 1017.0 - 0.0 - - - - - - -
27/01:00pm 19.5 N 5 10 1017.5 - 0.0 - - - - - - -
27/12:30pm 16.8 NE 6 8 1017.9 - 0.0 - - - - - - -
27/12:00pm 16.2 NNE 6 9 1018.7 - 0.0 - - - - - - -
27/11:30am 15.3 NE 5 8 1019.1 - 0.0 - - - - - - -
27/11:00am 14.1 NE 5 7 1019.6 - 0.0 - - - - - - -
27/10:30am 13.7 NNE 5 8 1019.8 - 0.0 - - - - - - -
27/10:00am 13.6 NE 5 7 1020.0 - 0.0 - - - - - - -
27/09:30am 12.9 NNE 5 7 1019.9 - 0.0 - - - - - - -
27/09:00am 12.9 NNE 5 8 1019.7 - 0.0 - - - - - - -
27/08:30am 12.4 NNE 4 5 1019.6 - 0.0 - - - - - - -
27/08:00am 12.1 NNE 6 8 1019.7 - 0.0 - - - - - - -
27/07:30am 12.1 NNE 6 9 1019.6 - 0.0 - - - - - - -
27/07:00am 12.5 NNE 7 9 1019.5 - 0.0 - - - - - - -
27/06:30am 12.5 NE 7 11 1019.5 - 0.0 - - - - - - -
27/06:00am 12.5 NE 8 12 1019.5 - 0.0 - - - - - - -
27/05:30am 12.2 NE 7 10 1019.6 - 0.0 - - - - - - -
27/05:00am 11.7 NE 5 7 1019.8 - 0.0 - - - - - - -
27/04:30am 11.4 NE 3 4 1020.2 - 0.0 - - - - - - -
27/04:00am 11.6 NNE 4 6 1020.3 - 0.0 - - - - - - -
27/03:30am 11.9 NNE 5 9 1020.5 - 0.0 - - - - - - -
27/03:00am 12.0 NNE 6 9 1020.6 - 0.0 - - - - - - -
27/02:30am 11.7 NE 6 10 1020.9 - 0.0 - - - - - - -
27/02:00am 11.3 NE 5 7 1021.2 - 0.0 - - - - - - -
27/01:30am 10.8 NE 5 7 1021.3 - 0.0 - - - - - - -
27/01:00am 10.4 NNE 5 7 1021.8 - 0.0 - - - - - - -
27/12:30am 10.3 NNE 4 6 1022.1 - 0.0 - - - - - - -
27/12:00am 10.2 NE 4 6 1022.4 - 0.0 - - - - - - -
 
Date/Time
EST
Temp

°C
Wind Pressure Rain
since 9am
mm
Weather Cloud Vis
km
Sea
Height
m
Swell
Dir
 
Speed
knots
Gust
knots
hPa Trend Height
m
Period
s
Dir
26/11:30pm 10.4 NNE 3 4 1022.8 - 0.0 - - - - - - -
26/11:00pm 10.4 NE 3 4 1022.9 - 0.0 - - - - - - -
26/10:30pm 10.4 NE 3 5 1023.0 - 0.0 - - - - - - -
26/10:00pm 10.7 NNE 5 6 1023.2 - 0.0 - - - - - - -
26/09:30pm 10.9 NNE 4 6 1023.4 - 0.0 - - - - - - -
26/09:00pm 11.0 NNE 3 5 1023.5 - 0.0 - - - - - - -
26/08:30pm 11.0 NE 2 4 1023.7 - 0.0 - - - - - - -
26/08:00pm 11.1 NE 2 4 1023.7 - 0.0 - - - - - - -
26/07:30pm 11.4 NE 3 4 1023.8 - 0.0 - - - - - - -
26/07:00pm 11.1 NE 3 3 1024.1 - 0.0 - - - - - - -

Other Formats:

Comma delimited format used in spreadsheet applications
http://www.bom.gov.au/fwo/IDV60701/IDV60701.94857.axf

JavaScript Object Notation format (JSON) in row-major order
http://www.bom.gov.au/fwo/IDV60701/IDV60701.94857.json